createdAt,value
2023-02-19T00:01:46.170Z,86.70
2023-02-19T00:03:53.959Z,65.97
2023-02-19T00:05:56.256Z,57.90
2023-02-19T00:07:58.911Z,56.30
2023-02-19T00:10:01.088Z,50.05
2023-02-19T00:12:03.164Z,45.03
2023-02-19T00:14:06.141Z,39.47
2023-02-19T00:16:10.029Z,39.35
2023-02-19T00:18:11.979Z,40.10
2023-02-19T00:20:14.550Z,40.50
2023-02-19T00:22:16.589Z,48.77
2023-02-19T00:24:19.664Z,50.13
2023-02-19T00:26:22.268Z,44.40
2023-02-19T00:28:24.672Z,44.10
2023-02-19T00:30:26.779Z,45.03
2023-02-19T00:32:28.912Z,37.63
2023-02-19T00:34:31.057Z,35.85
2023-02-19T00:36:36.284Z,29.97
2023-02-19T00:38:40.244Z,29.00
2023-02-19T00:40:42.420Z,29.87
2023-02-19T00:42:44.631Z,55.60
2023-02-19T00:44:51.186Z,79.63
2023-02-19T00:46:55.869Z,77.57
2023-02-19T00:48:58.800Z,84.87
2023-02-19T00:51:00.873Z,96.30
2023-02-19T00:53:03.344Z,90.50
2023-02-19T00:55:06.258Z,73.43
2023-02-19T00:57:08.397Z,68.22
2023-02-19T00:59:11.510Z,59.77
2023-02-19T01:01:14.499Z,50.40
2023-02-19T01:03:16.613Z,44.90
2023-02-19T01:05:18.804Z,45.50
2023-02-19T01:07:20.933Z,45.27
2023-02-19T01:09:24.885Z,46.43
2023-02-19T01:11:27.562Z,42.67
2023-02-19T01:13:30.277Z,38.47
2023-02-19T01:15:35.519Z,38.47
2023-02-19T01:17:38.403Z,35.00
2023-02-19T01:19:40.641Z,34.73
2023-02-19T01:21:42.859Z,32.67
2023-02-19T01:23:46.579Z,31.97
2023-02-19T01:25:48.710Z,31.17
2023-02-19T01:27:50.875Z,36.00
2023-02-19T01:29:52.794Z,33.57
2023-02-19T01:31:54.937Z,35.87
2023-02-19T01:34:00.584Z,33.27
2023-02-19T01:36:07.086Z,31.80
2023-02-19T01:38:09.088Z,32.13
2023-02-19T01:40:11.538Z,29.97
2023-02-19T01:42:17.212Z,31.60
2023-02-19T01:44:22.084Z,30.83
2023-02-19T01:46:33.012Z,30.17
2023-02-19T01:48:38.654Z,28.87
2023-02-19T01:50:47.710Z,32.57
2023-02-19T01:52:50.085Z,31.33
2023-02-19T01:54:55.258Z,31.50
2023-02-19T01:56:59.134Z,31.23
2023-02-19T01:59:02.278Z,32.97
2023-02-19T02:01:08.310Z,32.23
2023-02-19T02:03:10.921Z,33.70
2023-02-19T02:05:38.857Z,32.13
2023-02-19T02:07:59.704Z,31.67
2023-02-19T02:10:20.405Z,33.63
2023-02-19T02:12:22.512Z,33.43
2023-02-19T02:14:31.446Z,31.77
2023-02-19T02:16:54.435Z,32.90
2023-02-19T02:19:22.676Z,29.70
2023-02-19T02:21:36.140Z,29.70
2023-02-19T02:24:23.088Z,39.40
2023-02-19T02:26:49.803Z,86.60
2023-02-19T02:28:57.817Z,67.57
2023-02-19T02:31:07.383Z,52.40
2023-02-19T02:33:44.181Z,35.37
2023-02-19T02:36:07.825Z,77.97
2023-02-19T02:38:14.779Z,100.63
2023-02-19T02:40:20.079Z,77.30
2023-02-19T02:42:28.273Z,81.60
2023-02-19T02:45:04.803Z,38.27
2023-02-19T02:47:30.532Z,54.47
2023-02-19T02:49:57.383Z,42.93
2023-02-19T02:52:21.394Z,38.30
2023-02-19T02:54:49.736Z,34.60
2023-02-19T02:56:55.440Z,29.23
2023-02-19T02:58:59.559Z,29.87
2023-02-19T03:01:26.405Z,29.17
2023-02-19T03:03:31.463Z,32.90
2023-02-19T03:05:52.313Z,107.57
2023-02-19T03:08:16.996Z,84.77
2023-02-19T03:10:39.277Z,56.17
2023-02-19T03:13:01.749Z,53.00
2023-02-19T03:15:28.979Z,36.13
2023-02-19T03:18:10.219Z,59.57
2023-02-19T03:20:16.461Z,54.77
2023-02-19T03:22:24.149Z,72.60
2023-02-19T03:24:52.038Z,41.77
2023-02-19T03:26:58.742Z,37.30
2023-02-19T03:29:26.123Z,30.00
2023-02-19T03:31:38.472Z,27.87
2023-02-19T03:33:43.554Z,22.47
2023-02-19T03:35:50.393Z,22.57
2023-02-19T03:37:57.145Z,21.90
2023-02-19T03:40:00.021Z,20.73
2023-02-19T03:42:35.974Z,24.03
2023-02-19T03:44:48.364Z,28.70
2023-02-19T03:47:18.898Z,24.50
2023-02-19T03:49:32.773Z,22.13
2023-02-19T03:51:44.388Z,22.17
2023-02-19T03:53:54.701Z,19.90
2023-02-19T03:56:02.571Z,31.27
2023-02-19T03:58:10.333Z,40.03
2023-02-19T04:00:22.228Z,38.27
2023-02-19T04:02:32.492Z,36.97
2023-02-19T04:04:41.577Z,29.03
2023-02-19T04:06:52.924Z,27.03
2023-02-19T04:08:59.836Z,30.20
2023-02-19T04:11:03.350Z,29.57
2023-02-19T04:13:37.767Z,25.50
2023-02-19T04:15:45.397Z,22.30
2023-02-19T04:18:18.098Z,36.53
2023-02-19T04:20:22.612Z,38.73
2023-02-19T04:22:25.790Z,37.47
2023-02-19T04:25:01.176Z,27.20
2023-02-19T04:27:05.232Z,23.87
2023-02-19T04:29:10.956Z,23.47
2023-02-19T04:31:13.776Z,37.77
2023-02-19T04:33:16.228Z,38.67
2023-02-19T04:35:18.365Z,50.77
2023-02-19T04:37:20.702Z,42.57
2023-02-19T04:39:23.070Z,40.50
2023-02-19T04:41:25.420Z,34.07
2023-02-19T04:43:27.991Z,31.43
2023-02-19T04:45:30.297Z,38.13
2023-02-19T04:47:33.151Z,50.00
2023-02-19T04:49:35.167Z,43.83
2023-02-19T04:51:37.557Z,36.43
2023-02-19T04:53:39.535Z,37.67
2023-02-19T04:55:41.924Z,33.70
2023-02-19T04:57:43.996Z,31.90
2023-02-19T04:59:46.632Z,26.97
2023-02-19T05:01:48.749Z,23.50
2023-02-19T05:03:51.278Z,19.90
2023-02-19T05:05:53.649Z,21.07
2023-02-19T05:07:55.662Z,22.03
2023-02-19T05:09:59.970Z,18.50
2023-02-19T05:12:02.345Z,20.27
2023-02-19T05:14:05.301Z,21.37
2023-02-19T05:16:16.169Z,21.60
2023-02-19T05:18:18.628Z,20.17
2023-02-19T05:20:22.506Z,19.13
2023-02-19T05:22:24.770Z,18.70
2023-02-19T05:24:27.855Z,20.93
2023-02-19T05:26:31.430Z,69.50
2023-02-19T05:28:33.818Z,84.67
2023-02-19T05:30:35.978Z,72.57
2023-02-19T05:32:38.715Z,57.77
2023-02-19T05:34:43.163Z,64.67
2023-02-19T05:36:45.333Z,66.40
2023-02-19T05:38:48.101Z,51.07
2023-02-19T05:40:50.764Z,57.30
2023-02-19T05:42:52.822Z,70.23
2023-02-19T05:44:55.125Z,63.83
2023-02-19T05:46:57.324Z,60.87
2023-02-19T05:49:03.391Z,62.67
2023-02-19T05:51:12.228Z,64.13
2023-02-19T05:53:14.524Z,47.03
2023-02-19T05:55:16.716Z,36.97
2023-02-19T05:57:20.584Z,28.43
2023-02-19T05:59:25.668Z,27.53
2023-02-19T06:01:29.055Z,41.33
2023-02-19T06:03:31.192Z,53.23
2023-02-19T06:05:33.284Z,106.37
2023-02-19T06:07:35.411Z,137.17
2023-02-19T06:09:37.579Z,127.33
2023-02-19T06:11:40.348Z,94.90
2023-02-19T06:13:42.320Z,119.67
2023-02-19T06:15:44.270Z,89.13
2023-02-19T06:17:46.340Z,82.77
2023-02-19T06:19:48.725Z,110.63
2023-02-19T06:21:51.267Z,91.23
2023-02-19T06:23:54.495Z,66.73
2023-02-19T06:26:11.997Z,99.30
2023-02-19T06:28:14.064Z,93.63
2023-02-19T06:30:16.096Z,107.07
2023-02-19T06:32:18.628Z,117.40
2023-02-19T06:34:20.899Z,110.03
2023-02-19T06:36:23.904Z,128.00
2023-02-19T06:38:26.559Z,121.13
2023-02-19T06:40:29.130Z,95.53
2023-02-19T06:42:34.032Z,88.37
2023-02-19T06:44:36.520Z,70.93
2023-02-19T06:46:39.273Z,52.13
2023-02-19T06:48:44.932Z,47.70
2023-02-19T06:50:47.021Z,40.60
2023-02-19T06:52:49.348Z,30.77
2023-02-19T06:54:51.482Z,30.87
2023-02-19T06:56:53.610Z,26.97
2023-02-19T06:58:59.968Z,31.73
2023-02-19T07:01:02.336Z,27.00
2023-02-19T07:03:05.616Z,24.37
2023-02-19T07:05:07.841Z,20.90
2023-02-19T07:07:12.275Z,20.70
2023-02-19T07:09:14.319Z,21.87
2023-02-19T07:11:16.563Z,20.80
2023-02-19T07:13:19.039Z,21.97
2023-02-19T07:15:21.206Z,20.03
2023-02-19T07:17:23.227Z,18.97
2023-02-19T07:19:27.698Z,20.00
2023-02-19T07:21:30.221Z,16.47
2023-02-19T07:23:32.486Z,16.40
2023-02-19T07:25:34.493Z,19.57
2023-02-19T07:27:37.545Z,19.03
2023-02-19T07:29:39.643Z,18.13
2023-02-19T07:31:41.817Z,18.23
2023-02-19T07:33:44.895Z,17.33
2023-02-19T07:35:48.699Z,21.20
2023-02-19T07:37:50.931Z,23.53
2023-02-19T07:39:52.904Z,32.47
2023-02-19T07:41:54.945Z,33.40
2023-02-19T07:44:01.875Z,29.17
2023-02-19T07:46:09.305Z,33.00
2023-02-19T07:48:11.371Z,41.40
2023-02-19T07:50:14.103Z,57.47
2023-02-19T07:52:16.326Z,55.77
2023-02-19T07:54:18.615Z,49.20
2023-02-19T07:56:21.107Z,39.47
2023-02-19T07:58:23.145Z,32.60
2023-02-19T08:00:26.129Z,40.73
2023-02-19T08:02:46.520Z,51.37
2023-02-19T08:04:49.336Z,68.97
2023-02-19T08:06:58.441Z,71.13
2023-02-19T08:09:00.781Z,66.33
2023-02-19T08:11:22.769Z,77.13
2023-02-19T08:13:26.528Z,56.87
2023-02-19T08:15:28.778Z,73.77
2023-02-19T08:17:31.370Z,52.23
2023-02-19T08:19:33.272Z,53.37
2023-02-19T08:21:35.595Z,49.33
2023-02-19T08:23:38.086Z,49.57
2023-02-19T08:25:41.143Z,42.23
2023-02-19T08:27:45.621Z,37.43
2023-02-19T08:29:47.941Z,40.43
2023-02-19T08:31:50.387Z,47.37
2023-02-19T08:33:52.590Z,43.67
2023-02-19T08:35:54.981Z,48.97
2023-02-19T08:37:58.216Z,46.43
2023-02-19T08:40:00.447Z,44.00
2023-02-19T08:42:02.398Z,54.43
2023-02-19T08:44:04.572Z,66.40
2023-02-19T08:46:11.297Z,69.10
2023-02-19T08:48:14.271Z,61.07
2023-02-19T08:50:16.352Z,83.93
2023-02-19T08:52:18.541Z,85.53
2023-02-19T08:54:20.797Z,102.53
2023-02-19T08:56:23.111Z,84.97
2023-02-19T08:58:28.150Z,91.33
2023-02-19T09:00:30.568Z,81.03
2023-02-19T09:02:33.018Z,80.93
2023-02-19T09:04:36.522Z,71.07
2023-02-19T09:06:40.160Z,70.33
2023-02-19T09:08:42.521Z,61.10
2023-02-19T09:10:44.583Z,64.53
2023-02-19T09:12:46.610Z,65.00
2023-02-19T09:14:48.834Z,61.07
2023-02-19T09:16:51.172Z,53.17
2023-02-19T09:18:53.233Z,51.97
2023-02-19T09:20:55.186Z,45.77
2023-02-19T09:22:58.672Z,41.50
2023-02-19T09:25:00.754Z,41.40
2023-02-19T09:27:02.818Z,36.07
2023-02-19T09:29:05.205Z,32.63
2023-02-19T09:31:09.594Z,34.90
2023-02-19T09:33:11.998Z,37.03
2023-02-19T09:35:14.174Z,29.67
2023-02-19T09:37:16.380Z,32.17
2023-02-19T09:39:18.723Z,28.23
2023-02-19T09:41:40.825Z,27.97
2023-02-19T09:43:44.067Z,35.43
2023-02-19T09:45:47.188Z,35.70
2023-02-19T09:47:53.588Z,38.20
2023-02-19T09:50:00.174Z,36.77
2023-02-19T09:52:23.004Z,37.77
2023-02-19T09:54:29.405Z,36.50
2023-02-19T09:56:34.015Z,33.80
2023-02-19T09:58:52.486Z,42.30
2023-02-19T10:00:58.911Z,42.27
2023-02-19T10:03:14.984Z,44.67
2023-02-19T10:05:17.766Z,38.90
2023-02-19T10:07:44.051Z,36.53
2023-02-19T10:09:52.831Z,57.83
2023-02-19T10:11:56.295Z,59.53
2023-02-19T10:14:42.038Z,52.40
2023-02-19T10:16:46.760Z,82.87
2023-02-19T10:18:48.859Z,55.60
2023-02-19T10:20:52.650Z,53.27
2023-02-19T10:23:07.158Z,44.23
2023-02-19T10:25:14.945Z,36.13
2023-02-19T10:27:16.942Z,36.43
2023-02-19T10:29:20.325Z,34.37
2023-02-19T10:31:25.971Z,30.07
2023-02-19T10:33:28.724Z,25.43
2023-02-19T10:35:35.480Z,23.20
2023-02-19T10:37:46.639Z,24.73
2023-02-19T10:39:50.823Z,23.23
2023-02-19T10:41:56.330Z,24.83
2023-02-19T10:44:16.468Z,26.60
2023-02-19T10:46:32.113Z,26.17
2023-02-19T10:48:47.033Z,22.43
2023-02-19T10:50:58.206Z,25.47
2023-02-19T10:53:02.175Z,20.03
2023-02-19T10:55:28.511Z,18.63
2023-02-19T10:57:33.191Z,26.37
2023-02-19T10:59:35.383Z,22.00
2023-02-19T11:01:53.134Z,16.90
2023-02-19T11:04:21.070Z,17.03
2023-02-19T11:06:27.080Z,17.43
2023-02-19T11:08:30.374Z,16.90
2023-02-19T11:10:45.206Z,15.80
2023-02-19T11:12:50.891Z,18.40
2023-02-19T11:14:52.907Z,17.55
2023-02-19T11:16:57.999Z,16.67
2023-02-19T11:19:00.651Z,18.33
2023-02-19T11:21:05.743Z,18.58
2023-02-19T11:23:17.620Z,17.73
2023-02-19T11:25:25.555Z,18.70
2023-02-19T11:27:27.753Z,18.48
2023-02-19T11:29:35.090Z,17.17
2023-02-19T11:31:37.755Z,16.15
2023-02-19T11:34:01.229Z,16.58
2023-02-19T11:36:15.529Z,17.08
2023-02-19T11:38:19.746Z,19.38
2023-02-19T11:40:30.561Z,17.17
2023-02-19T11:42:57.558Z,22.77
2023-02-19T11:45:24.740Z,24.02
2023-02-19T11:47:54.853Z,20.20
2023-02-19T11:50:05.788Z,19.33
2023-02-19T11:52:13.940Z,18.08
2023-02-19T11:54:24.474Z,18.38
2023-02-19T11:56:34.376Z,17.95
2023-02-19T11:58:51.233Z,20.15
2023-02-19T12:01:10.086Z,19.48
2023-02-19T12:03:44.420Z,18.55
2023-02-19T12:06:10.068Z,19.23
2023-02-19T12:08:18.329Z,18.73
2023-02-19T12:10:24.707Z,18.67
2023-02-19T12:12:35.677Z,17.93
2023-02-19T12:14:47.914Z,20.10
2023-02-19T12:17:27.170Z,18.60
2023-02-19T12:19:47.961Z,18.97
2023-02-19T12:22:29.415Z,21.70
2023-02-19T12:24:31.730Z,20.13
2023-02-19T12:26:46.034Z,20.10
2023-02-19T12:29:18.651Z,18.50
2023-02-19T12:31:35.193Z,19.53
2023-02-19T12:34:05.315Z,25.13
2023-02-19T12:36:50.842Z,75.30
2023-02-19T12:39:17.134Z,111.10
2023-02-19T12:42:09.516Z,154.60
2023-02-19T12:44:21.009Z,132.52
2023-02-19T12:46:52.599Z,86.45
2023-02-19T12:49:23.267Z,84.65
2023-02-19T12:51:34.237Z,92.20
2023-02-19T12:53:36.234Z,83.50
2023-02-19T12:55:46.034Z,139.77
2023-02-19T12:57:51.845Z,84.13
2023-02-19T13:00:31.541Z,86.17
2023-02-19T13:03:00.069Z,51.28
2023-02-19T13:05:37.156Z,51.63
2023-02-19T13:08:01.492Z,85.25
2023-02-19T13:10:36.078Z,118.82
2023-02-19T13:12:43.404Z,85.40
2023-02-19T13:14:49.517Z,83.13
2023-02-19T13:17:00.413Z,67.38
2023-02-19T13:19:04.941Z,71.97
2023-02-19T13:21:08.691Z,34.33
2023-02-19T13:23:35.464Z,65.35
2023-02-19T13:25:57.508Z,68.93
2023-02-19T13:28:15.682Z,46.60
2023-02-19T13:30:32.025Z,75.25
2023-02-19T13:32:56.232Z,81.35
2023-02-19T13:35:21.884Z,41.95
2023-02-19T13:37:25.356Z,41.05
2023-02-19T13:39:29.212Z,37.38
2023-02-19T13:41:54.670Z,48.58
2023-02-19T13:44:00.987Z,65.72
2023-02-19T13:46:06.564Z,87.47
2023-02-19T13:48:23.973Z,92.40
2023-02-19T13:50:32.058Z,63.90
2023-02-19T13:52:38.283Z,57.03
2023-02-19T13:54:40.716Z,47.47
2023-02-19T13:56:43.014Z,33.08
2023-02-19T13:58:58.579Z,31.92
2023-02-19T14:01:04.742Z,38.92
2023-02-19T14:03:39.509Z,39.00
2023-02-19T14:06:09.870Z,27.98
2023-02-19T14:08:12.573Z,33.78
2023-02-19T14:10:46.249Z,41.42
2023-02-19T14:12:48.507Z,27.70
2023-02-19T14:14:52.333Z,26.08
2023-02-19T14:17:09.858Z,24.52
2023-02-19T14:19:35.828Z,30.80
2023-02-19T14:21:40.351Z,32.25
2023-02-19T14:23:43.528Z,32.90
2023-02-19T14:25:52.924Z,35.15
2023-02-19T14:28:17.416Z,42.00
2023-02-19T14:30:22.470Z,49.40
2023-02-19T14:32:25.122Z,32.17
2023-02-19T14:34:27.525Z,35.13
2023-02-19T14:36:41.690Z,39.25
2023-02-19T14:39:15.793Z,35.88
2023-02-19T14:41:18.634Z,43.75
2023-02-19T14:43:23.753Z,50.28
2023-02-19T14:45:29.113Z,46.90
2023-02-19T14:47:35.051Z,33.63
2023-02-19T14:49:55.469Z,23.70
2023-02-19T14:52:01.778Z,17.77
2023-02-19T14:54:15.812Z,26.05
2023-02-19T14:56:23.811Z,39.88
2023-02-19T14:58:32.241Z,41.50
2023-02-19T15:00:40.381Z,34.85
2023-02-19T15:02:43.592Z,29.27
2023-02-19T15:04:45.681Z,31.25
2023-02-19T15:06:47.902Z,37.38
2023-02-19T15:08:55.992Z,42.10
2023-02-19T15:10:58.677Z,38.67
2023-02-19T15:13:07.569Z,50.85
2023-02-19T15:15:19.192Z,63.28
2023-02-19T15:17:32.770Z,68.50
2023-02-19T15:19:37.663Z,98.55
2023-02-19T15:21:48.208Z,95.80
2023-02-19T15:23:51.336Z,102.28
2023-02-19T15:25:53.982Z,97.40
2023-02-19T15:28:21.894Z,99.95
2023-02-19T15:30:28.602Z,83.60
2023-02-19T15:32:30.832Z,91.30
2023-02-19T15:34:33.564Z,109.70
2023-02-19T15:36:35.703Z,112.22
2023-02-19T15:38:40.587Z,84.63
2023-02-19T15:40:47.325Z,57.95
2023-02-19T15:42:49.599Z,65.80
2023-02-19T15:45:22.718Z,90.00
2023-02-19T15:47:45.049Z,76.88
2023-02-19T15:49:57.341Z,71.00
2023-02-19T15:52:13.029Z,86.13
2023-02-19T15:54:20.624Z,81.97
2023-02-19T15:56:33.714Z,62.88
2023-02-19T15:59:14.854Z,46.05
2023-02-19T16:01:31.689Z,37.05
2023-02-19T16:03:35.482Z,40.55
2023-02-19T16:05:40.311Z,43.10
2023-02-19T16:07:44.059Z,43.55
2023-02-19T16:09:46.155Z,34.90
2023-02-19T16:11:51.831Z,40.35
2023-02-19T16:14:24.462Z,119.40
2023-02-19T16:16:31.004Z,88.45
2023-02-19T16:18:34.541Z,48.88
2023-02-19T16:20:36.758Z,36.03
2023-02-19T16:22:43.029Z,36.78
2023-02-19T16:24:55.319Z,32.90
2023-02-19T16:26:58.518Z,29.20
2023-02-19T16:29:00.834Z,24.90
2023-02-19T16:31:06.672Z,27.75
2023-02-19T16:33:33.640Z,48.28
2023-02-19T16:35:37.514Z,52.40
2023-02-19T16:37:44.294Z,55.10
2023-02-19T16:39:46.569Z,55.15
2023-02-19T16:41:48.676Z,37.47
2023-02-19T16:43:50.659Z,26.30
2023-02-19T16:45:53.173Z,24.50
2023-02-19T16:47:55.552Z,24.87
2023-02-19T16:50:00.360Z,23.58
2023-02-19T16:52:04.776Z,22.50
2023-02-19T16:54:07.052Z,22.10
2023-02-19T16:56:19.073Z,20.27
2023-02-19T16:58:21.626Z,18.77
2023-02-19T17:00:31.474Z,16.27
2023-02-19T17:02:34.018Z,17.10
2023-02-19T17:04:36.282Z,18.15
2023-02-19T17:06:38.563Z,18.20
2023-02-19T17:08:45.204Z,19.90
2023-02-19T17:10:47.401Z,19.87
2023-02-19T17:12:50.857Z,18.08
2023-02-19T17:14:53.426Z,21.95
2023-02-19T17:16:55.576Z,20.27
2023-02-19T17:18:59.094Z,21.33
2023-02-19T17:21:17.582Z,18.47
2023-02-19T17:23:19.627Z,15.90
2023-02-19T17:25:23.508Z,16.58
2023-02-19T17:27:25.561Z,18.52
2023-02-19T17:29:28.884Z,20.52
2023-02-19T17:31:34.354Z,16.33
2023-02-19T17:33:37.191Z,10.00
2023-02-19T17:35:39.370Z,8.43
2023-02-19T17:37:41.597Z,5.57
2023-02-19T17:39:43.855Z,5.05
2023-02-19T17:41:45.966Z,4.38
2023-02-19T17:43:50.542Z,5.97
2023-02-19T17:45:53.161Z,4.93
2023-02-19T17:47:57.187Z,7.00
2023-02-19T17:50:03.626Z,5.93
2023-02-19T17:52:06.092Z,4.97
2023-02-19T17:54:09.526Z,3.88
2023-02-19T17:56:17.027Z,3.05
2023-02-19T17:58:19.501Z,4.30
2023-02-19T18:00:30.014Z,4.72
2023-02-19T18:02:32.364Z,3.97
2023-02-19T18:04:40.142Z,5.05
2023-02-19T18:06:43.672Z,5.63
2023-02-19T18:08:50.952Z,5.93
2023-02-19T18:10:53.480Z,6.78
2023-02-19T18:12:56.059Z,7.07
2023-02-19T18:14:58.372Z,6.68
2023-02-19T18:17:02.830Z,5.60
2023-02-19T18:19:07.648Z,6.18
2023-02-19T18:21:11.476Z,4.97
2023-02-19T18:23:14.466Z,5.65
2023-02-19T18:25:17.363Z,6.03
2023-02-19T18:27:22.930Z,5.50
2023-02-19T18:29:27.159Z,6.67
2023-02-19T18:31:32.846Z,8.65
2023-02-19T18:33:35.513Z,10.25
2023-02-19T18:35:38.666Z,10.20
2023-02-19T18:37:40.886Z,8.53
2023-02-19T18:39:44.596Z,8.55
2023-02-19T18:41:51.207Z,6.88
2023-02-19T18:43:53.744Z,7.97
2023-02-19T18:45:55.753Z,7.43
2023-02-19T18:47:57.880Z,8.13
2023-02-19T18:49:59.964Z,11.68
2023-02-19T18:52:02.092Z,33.30
2023-02-19T18:54:04.656Z,40.97
2023-02-19T18:56:09.171Z,39.70
2023-02-19T18:58:11.185Z,38.63
2023-02-19T19:00:23.779Z,29.95
2023-02-19T19:02:27.135Z,25.70
2023-02-19T19:04:29.366Z,23.40
2023-02-19T19:06:31.844Z,20.83
2023-02-19T19:08:34.164Z,18.23
2023-02-19T19:10:36.271Z,16.23
2023-02-19T19:12:38.440Z,16.15
2023-02-19T19:14:40.692Z,16.20
2023-02-19T19:16:43.271Z,13.70
2023-02-19T19:18:47.409Z,17.27
2023-02-19T19:20:49.667Z,19.00
2023-02-19T19:22:53.004Z,44.55
2023-02-19T19:24:55.180Z,91.78
2023-02-19T19:26:57.222Z,94.85
2023-02-19T19:28:59.663Z,97.47
2023-02-19T19:31:05.783Z,84.03
2023-02-19T19:33:07.899Z,84.57
2023-02-19T19:35:10.226Z,58.63
2023-02-19T19:37:12.526Z,32.45
2023-02-19T19:39:15.124Z,21.10
2023-02-19T19:41:19.330Z,24.08
2023-02-19T19:43:21.493Z,12.10
2023-02-19T19:45:24.409Z,9.70
2023-02-19T19:47:26.595Z,6.75
2023-02-19T19:49:28.774Z,8.97
2023-02-19T19:51:32.736Z,4.88
2023-02-19T19:53:35.129Z,5.20
2023-02-19T19:55:37.518Z,9.82
2023-02-19T19:57:40.932Z,9.97
2023-02-19T19:59:42.935Z,7.23
2023-02-19T20:01:49.898Z,8.67
2023-02-19T20:03:52.098Z,7.73
2023-02-19T20:05:55.005Z,5.00
2023-02-19T20:07:57.091Z,9.67
2023-02-19T20:09:59.307Z,12.23
2023-02-19T20:12:02.307Z,11.10
2023-02-19T20:14:07.361Z,5.67
2023-02-19T20:16:11.057Z,7.27
2023-02-19T20:18:13.350Z,6.60
2023-02-19T20:20:17.834Z,10.27
2023-02-19T20:22:20.530Z,14.07
2023-02-19T20:24:26.121Z,5.20
2023-02-19T20:26:29.790Z,7.60
2023-02-19T20:28:32.669Z,9.83
2023-02-19T20:30:37.386Z,7.63
2023-02-19T20:32:39.332Z,6.73
2023-02-19T20:34:41.721Z,6.30
2023-02-19T20:36:48.153Z,6.23
2023-02-19T20:38:50.667Z,5.07
2023-02-19T20:40:56.603Z,6.43
2023-02-19T20:43:00.989Z,5.20
2023-02-19T20:45:06.133Z,5.67
2023-02-19T20:47:08.214Z,4.40
2023-02-19T20:49:10.461Z,3.67
2023-02-19T20:51:12.359Z,3.50
2023-02-19T20:53:14.591Z,4.20
2023-02-19T20:55:16.703Z,3.37
2023-02-19T20:57:18.527Z,4.13
2023-02-19T20:59:22.824Z,4.63
2023-02-19T21:01:28.165Z,4.57
2023-02-19T21:03:30.358Z,5.13
2023-02-19T21:05:32.404Z,5.17
2023-02-19T21:07:34.731Z,5.27
2023-02-19T21:09:36.697Z,3.33
2023-02-19T21:11:39.514Z,4.70
2023-02-19T21:13:43.306Z,3.90
2023-02-19T21:15:46.009Z,4.10
2023-02-19T21:17:48.197Z,3.77
2023-02-19T21:19:50.359Z,3.50
2023-02-19T21:21:52.413Z,4.87
2023-02-19T21:23:55.719Z,5.00
2023-02-19T21:25:57.892Z,4.63
2023-02-19T21:27:59.850Z,4.13
2023-02-19T21:30:02.045Z,3.80
2023-02-19T21:32:04.218Z,4.07
2023-02-19T21:34:08.054Z,3.30
2023-02-19T21:36:10.733Z,3.80
2023-02-19T21:38:13.057Z,3.00
2023-02-19T21:40:15.663Z,3.87
2023-02-19T21:42:18.079Z,3.13
2023-02-19T21:44:21.459Z,3.37
2023-02-19T21:46:25.249Z,3.33
2023-02-19T21:48:27.944Z,3.33
2023-02-19T21:50:30.089Z,6.10
2023-02-19T21:52:32.254Z,5.50
2023-02-19T21:54:34.293Z,4.17
2023-02-19T21:56:37.201Z,4.77
2023-02-19T21:58:39.475Z,4.10
2023-02-19T22:00:41.506Z,4.83
2023-02-19T22:02:43.739Z,4.53
2023-02-19T22:04:46.991Z,4.53
2023-02-19T22:06:48.948Z,5.40
2023-02-19T22:08:51.112Z,4.50
2023-02-19T22:10:53.164Z,4.67
2023-02-19T22:12:55.741Z,3.50
2023-02-19T22:14:57.977Z,3.03
2023-02-19T22:17:00.050Z,3.53
2023-02-19T22:19:02.238Z,3.50
2023-02-19T22:21:05.704Z,4.30
2023-02-19T22:23:08.244Z,3.97
2023-02-19T22:25:10.171Z,3.70
2023-02-19T22:27:12.272Z,3.70
2023-02-19T22:29:15.803Z,3.73
2023-02-19T22:31:20.439Z,4.70
2023-02-19T22:33:23.626Z,4.80
2023-02-19T22:35:27.125Z,4.97
2023-02-19T22:37:30.099Z,3.70
2023-02-19T22:39:32.374Z,3.70
2023-02-19T22:41:36.734Z,4.27
2023-02-19T22:43:39.101Z,4.47
2023-02-19T22:45:41.478Z,5.90
2023-02-19T22:47:47.132Z,5.33
2023-02-19T22:49:49.107Z,4.67
2023-02-19T22:51:56.828Z,4.47
2023-02-19T22:54:00.265Z,5.97
2023-02-19T22:56:02.272Z,4.23
2023-02-19T22:58:04.282Z,4.37
2023-02-19T23:00:07.219Z,5.53
2023-02-19T23:02:09.211Z,4.57
2023-02-19T23:04:11.626Z,5.60
2023-02-19T23:06:20.529Z,7.57
2023-02-19T23:08:22.657Z,38.83
2023-02-19T23:10:24.780Z,43.40
2023-02-19T23:12:26.854Z,31.10
2023-02-19T23:14:29.074Z,21.87
2023-02-19T23:16:36.232Z,13.77
2023-02-19T23:18:38.439Z,12.33
2023-02-19T23:20:40.592Z,13.23
2023-02-19T23:22:43.697Z,10.97
2023-02-19T23:24:46.214Z,10.97
2023-02-19T23:26:50.894Z,8.70
2023-02-19T23:28:53.064Z,6.37
2023-02-19T23:30:55.287Z,5.40
2023-02-19T23:32:57.607Z,4.80
2023-02-19T23:34:59.507Z,4.33
2023-02-19T23:37:02.430Z,7.83
2023-02-19T23:39:04.374Z,9.03
2023-02-19T23:41:11.886Z,9.83
2023-02-19T23:43:13.798Z,14.80
2023-02-19T23:45:16.896Z,16.50
2023-02-19T23:47:20.230Z,10.10
2023-02-19T23:49:23.008Z,9.23
2023-02-19T23:51:25.294Z,5.30
2023-02-19T23:53:27.353Z,5.37
2023-02-19T23:55:30.748Z,4.80
2023-02-19T23:57:32.832Z,4.27
2023-02-19T23:59:36.028Z,6.23
